sensor_id;sensor_type;location;lat;lon;timestamp;P1;durP1;ratioP1;P2;durP2;ratioP2
23129;SDS011;11734;51.046;13.778;2023-03-01T00:00:06;31.03;;;21.83;;
23129;SDS011;11734;51.046;13.778;2023-03-01T00:02:54;30.53;;;21.10;;
23129;SDS011;11734;51.046;13.778;2023-03-01T00:05:21;29.63;;;20.83;;
23129;SDS011;11734;51.046;13.778;2023-03-01T00:07:51;29.07;;;19.60;;
23129;SDS011;11734;51.046;13.778;2023-03-01T00:10:19;28.13;;;19.90;;
23129;SDS011;11734;51.046;13.778;2023-03-01T00:12:46;29.33;;;20.07;;
23129;SDS011;11734;51.046;13.778;2023-03-01T00:15:13;31.67;;;21.50;;
23129;SDS011;11734;51.046;13.778;2023-03-01T00:17:41;30.80;;;20.27;;
23129;SDS011;11734;51.046;13.778;2023-03-01T00:20:08;33.27;;;20.87;;
23129;SDS011;11734;51.046;13.778;2023-03-01T00:22:36;33.10;;;21.10;;
23129;SDS011;11734;51.046;13.778;2023-03-01T00:25:04;29.60;;;20.90;;
23129;SDS011;11734;51.046;13.778;2023-03-01T00:27:50;33.10;;;22.93;;
23129;SDS011;11734;51.046;13.778;2023-03-01T00:30:18;32.37;;;21.87;;
23129;SDS011;11734;51.046;13.778;2023-03-01T00:32:46;31.63;;;21.93;;
23129;SDS011;11734;51.046;13.778;2023-03-01T00:35:13;29.63;;;20.57;;
23129;SDS011;11734;51.046;13.778;2023-03-01T00:37:41;33.33;;;22.33;;
23129;SDS011;11734;51.046;13.778;2023-03-01T00:40:08;32.97;;;22.37;;
23129;SDS011;11734;51.046;13.778;2023-03-01T00:42:36;31.53;;;21.60;;
23129;SDS011;11734;51.046;13.778;2023-03-01T00:45:04;32.77;;;22.83;;
23129;SDS011;11734;51.046;13.778;2023-03-01T00:47:32;32.47;;;22.67;;
23129;SDS011;11734;51.046;13.778;2023-03-01T00:49:59;33.43;;;22.77;;
23129;SDS011;11734;51.046;13.778;2023-03-01T00:52:27;32.13;;;21.97;;
23129;SDS011;11734;51.046;13.778;2023-03-01T00:54:54;33.93;;;22.60;;
23129;SDS011;11734;51.046;13.778;2023-03-01T00:57:21;34.80;;;22.33;;
23129;SDS011;11734;51.046;13.778;2023-03-01T00:59:49;32.40;;;22.47;;
23129;SDS011;11734;51.046;13.778;2023-03-01T01:02:19;30.10;;;21.23;;
23129;SDS011;11734;51.046;13.778;2023-03-01T01:04:46;33.77;;;22.43;;
23129;SDS011;11734;51.046;13.778;2023-03-01T01:07:14;33.70;;;22.53;;
23129;SDS011;11734;51.046;13.778;2023-03-01T01:09:41;32.80;;;22.77;;
23129;SDS011;11734;51.046;13.778;2023-03-01T01:12:09;34.47;;;23.27;;
23129;SDS011;11734;51.046;13.778;2023-03-01T01:14:36;32.47;;;21.97;;
23129;SDS011;11734;51.046;13.778;2023-03-01T01:17:04;36.67;;;23.47;;
23129;SDS011;11734;51.046;13.778;2023-03-01T01:19:31;31.93;;;21.63;;
23129;SDS011;11734;51.046;13.778;2023-03-01T01:21:59;32.43;;;21.53;;
23129;SDS011;11734;51.046;13.778;2023-03-01T01:24:26;32.20;;;22.43;;
23129;SDS011;11734;51.046;13.778;2023-03-01T01:26:53;36.00;;;22.93;;
23129;SDS011;11734;51.046;13.778;2023-03-01T01:29:21;32.43;;;22.07;;
23129;SDS011;11734;51.046;13.778;2023-03-01T01:31:48;32.90;;;22.40;;
23129;SDS011;11734;51.046;13.778;2023-03-01T01:34:17;34.00;;;21.53;;
23129;SDS011;11734;51.046;13.778;2023-03-01T01:36:47;31.70;;;21.63;;
23129;SDS011;11734;51.046;13.778;2023-03-01T01:39:14;32.43;;;22.07;;
23129;SDS011;11734;51.046;13.778;2023-03-01T01:41:42;33.80;;;21.50;;
23129;SDS011;11734;51.046;13.778;2023-03-01T01:44:20;32.53;;;21.13;;
23129;SDS011;11734;51.046;13.778;2023-03-01T01:46:53;29.83;;;20.13;;
23129;SDS011;11734;51.046;13.778;2023-03-01T01:55:03;29.63;;;20.97;;
23129;SDS011;11734;51.046;13.778;2023-03-01T01:57:45;31.80;;;20.40;;
23129;SDS011;11734;51.046;13.778;2023-03-01T02:00:16;29.10;;;20.93;;
23129;SDS011;11734;51.046;13.778;2023-03-01T02:02:44;31.00;;;21.33;;
23129;SDS011;11734;51.046;13.778;2023-03-01T02:07:48;31.70;;;20.23;;
23129;SDS011;11734;51.046;13.778;2023-03-01T02:10:19;32.00;;;19.77;;
23129;SDS011;11734;51.046;13.778;2023-03-01T02:12:46;30.40;;;21.00;;
23129;SDS011;11734;51.046;13.778;2023-03-01T02:15:14;30.17;;;20.83;;
23129;SDS011;11734;51.046;13.778;2023-03-01T02:17:41;33.50;;;21.30;;
23129;SDS011;11734;51.046;13.778;2023-03-01T02:22:36;34.93;;;22.57;;
23129;SDS011;11734;51.046;13.778;2023-03-01T02:25:10;31.00;;;20.60;;
23129;SDS011;11734;51.046;13.778;2023-03-01T02:27:45;32.77;;;21.27;;
23129;SDS011;11734;51.046;13.778;2023-03-01T02:30:14;32.03;;;21.27;;
23129;SDS011;11734;51.046;13.778;2023-03-01T02:32:42;31.70;;;20.77;;
23129;SDS011;11734;51.046;13.778;2023-03-01T02:35:11;33.73;;;20.90;;
23129;SDS011;11734;51.046;13.778;2023-03-01T02:37:40;29.27;;;20.50;;
23129;SDS011;11734;51.046;13.778;2023-03-01T02:40:09;33.07;;;21.40;;
23129;SDS011;11734;51.046;13.778;2023-03-01T02:42:43;32.93;;;21.17;;
23129;SDS011;11734;51.046;13.778;2023-03-01T02:45:13;32.10;;;21.20;;
23129;SDS011;11734;51.046;13.778;2023-03-01T02:47:41;30.87;;;20.97;;
23129;SDS011;11734;51.046;13.778;2023-03-01T02:50:11;31.73;;;20.83;;
23129;SDS011;11734;51.046;13.778;2023-03-01T02:52:47;33.90;;;22.00;;
23129;SDS011;11734;51.046;13.778;2023-03-01T02:55:17;31.87;;;21.10;;
23129;SDS011;11734;51.046;13.778;2023-03-01T02:57:45;34.83;;;22.13;;
23129;SDS011;11734;51.046;13.778;2023-03-01T03:00:18;32.13;;;20.60;;
23129;SDS011;11734;51.046;13.778;2023-03-01T03:02:47;35.67;;;22.50;;
23129;SDS011;11734;51.046;13.778;2023-03-01T03:05:22;34.10;;;22.40;;
23129;SDS011;11734;51.046;13.778;2023-03-01T03:07:52;31.67;;;20.93;;
23129;SDS011;11734;51.046;13.778;2023-03-01T03:10:21;32.87;;;21.50;;
23129;SDS011;11734;51.046;13.778;2023-03-01T03:12:53;35.10;;;21.90;;
23129;SDS011;11734;51.046;13.778;2023-03-01T03:15:21;31.77;;;20.57;;
23129;SDS011;11734;51.046;13.778;2023-03-01T03:17:50;32.23;;;20.93;;
23129;SDS011;11734;51.046;13.778;2023-03-01T03:20:22;32.20;;;21.23;;
23129;SDS011;11734;51.046;13.778;2023-03-01T03:22:51;31.50;;;20.83;;
23129;SDS011;11734;51.046;13.778;2023-03-01T03:25:19;33.43;;;20.87;;
23129;SDS011;11734;51.046;13.778;2023-03-01T03:27:47;32.40;;;19.77;;
23129;SDS011;11734;51.046;13.778;2023-03-01T03:30:16;33.33;;;20.30;;
23129;SDS011;11734;51.046;13.778;2023-03-01T03:32:44;33.00;;;20.77;;
23129;SDS011;11734;51.046;13.778;2023-03-01T03:36:01;31.10;;;20.37;;
23129;SDS011;11734;51.046;13.778;2023-03-01T03:38:10;31.10;;;20.33;;
23129;SDS011;11734;51.046;13.778;2023-03-01T03:40:46;34.60;;;20.83;;
23129;SDS011;11734;51.046;13.778;2023-03-01T03:43:17;32.17;;;20.13;;
23129;SDS011;11734;51.046;13.778;2023-03-01T03:45:45;35.70;;;21.13;;
23129;SDS011;11734;51.046;13.778;2023-03-01T03:48:13;33.47;;;20.50;;
23129;SDS011;11734;51.046;13.778;2023-03-01T03:50:40;29.60;;;20.10;;
23129;SDS011;11734;51.046;13.778;2023-03-01T03:53:10;32.60;;;19.93;;
23129;SDS011;11734;51.046;13.778;2023-03-01T03:55:38;33.17;;;20.43;;
23129;SDS011;11734;51.046;13.778;2023-03-01T03:58:07;33.20;;;20.77;;
23129;SDS011;11734;51.046;13.778;2023-03-01T04:00:37;34.63;;;20.43;;
23129;SDS011;11734;51.046;13.778;2023-03-01T04:03:05;31.53;;;20.27;;
23129;SDS011;11734;51.046;13.778;2023-03-01T04:05:32;28.33;;;19.13;;
23129;SDS011;11734;51.046;13.778;2023-03-01T04:08:00;29.13;;;19.93;;
23129;SDS011;11734;51.046;13.778;2023-03-01T04:10:40;33.27;;;20.70;;
23129;SDS011;11734;51.046;13.778;2023-03-01T04:13:10;31.73;;;21.70;;
23129;SDS011;11734;51.046;13.778;2023-03-01T04:15:38;33.67;;;21.53;;
23129;SDS011;11734;51.046;13.778;2023-03-01T04:18:06;32.07;;;21.27;;
23129;SDS011;11734;51.046;13.778;2023-03-01T04:20:34;32.87;;;21.80;;
23129;SDS011;11734;51.046;13.778;2023-03-01T04:23:06;33.10;;;20.87;;
23129;SDS011;11734;51.046;13.778;2023-03-01T04:25:40;32.67;;;21.47;;
23129;SDS011;11734;51.046;13.778;2023-03-01T04:28:08;35.43;;;21.87;;
23129;SDS011;11734;51.046;13.778;2023-03-01T04:30:36;30.97;;;20.17;;
23129;SDS011;11734;51.046;13.778;2023-03-01T04:33:08;31.33;;;20.77;;
23129;SDS011;11734;51.046;13.778;2023-03-01T04:35:36;34.23;;;21.37;;
23129;SDS011;11734;51.046;13.778;2023-03-01T04:38:04;33.57;;;20.53;;
23129;SDS011;11734;51.046;13.778;2023-03-01T04:40:31;32.33;;;21.23;;
23129;SDS011;11734;51.046;13.778;2023-03-01T04:42:59;35.60;;;21.70;;
23129;SDS011;11734;51.046;13.778;2023-03-01T04:45:26;37.27;;;22.20;;
23129;SDS011;11734;51.046;13.778;2023-03-01T04:47:54;37.33;;;22.60;;
23129;SDS011;11734;51.046;13.778;2023-03-01T04:50:24;37.97;;;23.53;;
23129;SDS011;11734;51.046;13.778;2023-03-01T04:52:52;34.90;;;22.67;;
23129;SDS011;11734;51.046;13.778;2023-03-01T04:55:19;38.53;;;23.10;;
23129;SDS011;11734;51.046;13.778;2023-03-01T04:57:47;32.07;;;21.67;;
23129;SDS011;11734;51.046;13.778;2023-03-01T05:00:14;32.80;;;21.33;;
23129;SDS011;11734;51.046;13.778;2023-03-01T05:02:55;34.63;;;20.90;;
23129;SDS011;11734;51.046;13.778;2023-03-01T05:05:27;32.53;;;21.07;;
23129;SDS011;11734;51.046;13.778;2023-03-01T05:07:59;33.80;;;20.93;;
23129;SDS011;11734;51.046;13.778;2023-03-01T05:10:27;30.80;;;20.67;;
23129;SDS011;11734;51.046;13.778;2023-03-01T05:12:57;33.03;;;20.73;;
23129;SDS011;11734;51.046;13.778;2023-03-01T05:15:25;30.03;;;18.80;;
23129;SDS011;11734;51.046;13.778;2023-03-01T05:17:54;32.23;;;20.23;;
23129;SDS011;11734;51.046;13.778;2023-03-01T05:20:22;28.20;;;18.80;;
23129;SDS011;11734;51.046;13.778;2023-03-01T05:23:08;29.93;;;19.27;;
23129;SDS011;11734;51.046;13.778;2023-03-01T05:25:35;29.83;;;19.63;;
23129;SDS011;11734;51.046;13.778;2023-03-01T05:28:12;29.93;;;18.97;;
23129;SDS011;11734;51.046;13.778;2023-03-01T05:30:41;31.57;;;19.67;;
23129;SDS011;11734;51.046;13.778;2023-03-01T05:33:09;28.73;;;19.50;;
23129;SDS011;11734;51.046;13.778;2023-03-01T05:35:40;32.30;;;19.87;;
23129;SDS011;11734;51.046;13.778;2023-03-01T05:38:11;30.80;;;19.13;;
23129;SDS011;11734;51.046;13.778;2023-03-01T05:40:40;33.53;;;20.47;;
23129;SDS011;11734;51.046;13.778;2023-03-01T05:43:07;32.37;;;19.90;;
23129;SDS011;11734;51.046;13.778;2023-03-01T05:45:35;31.73;;;19.57;;
23129;SDS011;11734;51.046;13.778;2023-03-01T05:48:04;33.87;;;21.30;;
23129;SDS011;11734;51.046;13.778;2023-03-01T05:50:32;31.00;;;20.07;;
23129;SDS011;11734;51.046;13.778;2023-03-01T05:53:01;31.43;;;20.23;;
23129;SDS011;11734;51.046;13.778;2023-03-01T05:55:29;40.17;;;23.57;;
23129;SDS011;11734;51.046;13.778;2023-03-01T05:58:00;33.80;;;22.07;;
23129;SDS011;11734;51.046;13.778;2023-03-01T06:00:29;37.40;;;23.27;;
23129;SDS011;11734;51.046;13.778;2023-03-01T06:02:56;32.63;;;21.10;;
23129;SDS011;11734;51.046;13.778;2023-03-01T06:05:24;33.43;;;21.67;;
23129;SDS011;11734;51.046;13.778;2023-03-01T06:07:52;33.77;;;21.30;;
23129;SDS011;11734;51.046;13.778;2023-03-01T06:10:21;30.13;;;20.23;;
23129;SDS011;11734;51.046;13.778;2023-03-01T06:12:48;32.93;;;20.33;;
23129;SDS011;11734;51.046;13.778;2023-03-01T06:15:16;32.00;;;20.03;;
23129;SDS011;11734;51.046;13.778;2023-03-01T06:17:43;31.97;;;20.53;;
23129;SDS011;11734;51.046;13.778;2023-03-01T06:20:16;29.30;;;18.67;;
23129;SDS011;11734;51.046;13.778;2023-03-01T06:22:44;27.17;;;18.53;;
23129;SDS011;11734;51.046;13.778;2023-03-01T06:25:12;31.97;;;20.13;;
23129;SDS011;11734;51.046;13.778;2023-03-01T06:27:40;31.37;;;20.13;;
23129;SDS011;11734;51.046;13.778;2023-03-01T06:30:09;73.10;;;39.37;;
23129;SDS011;11734;51.046;13.778;2023-03-01T06:32:37;38.07;;;25.03;;
23129;SDS011;11734;51.046;13.778;2023-03-01T06:35:11;37.30;;;23.70;;
23129;SDS011;11734;51.046;13.778;2023-03-01T06:37:39;31.10;;;19.97;;
23129;SDS011;11734;51.046;13.778;2023-03-01T06:40:07;29.90;;;19.77;;
23129;SDS011;11734;51.046;13.778;2023-03-01T06:42:35;29.97;;;20.47;;
23129;SDS011;11734;51.046;13.778;2023-03-01T06:45:04;30.20;;;19.80;;
23129;SDS011;11734;51.046;13.778;2023-03-01T06:47:32;30.60;;;19.73;;
23129;SDS011;11734;51.046;13.778;2023-03-01T06:50:00;27.37;;;19.10;;
23129;SDS011;11734;51.046;13.778;2023-03-01T06:52:27;27.20;;;18.57;;
23129;SDS011;11734;51.046;13.778;2023-03-01T06:54:54;27.27;;;18.37;;
23129;SDS011;11734;51.046;13.778;2023-03-01T06:57:22;30.73;;;18.57;;
23129;SDS011;11734;51.046;13.778;2023-03-01T06:59:49;30.20;;;19.40;;
23129;SDS011;11734;51.046;13.778;2023-03-01T07:02:17;29.53;;;19.17;;
23129;SDS011;11734;51.046;13.778;2023-03-01T07:04:44;28.63;;;18.40;;
23129;SDS011;11734;51.046;13.778;2023-03-01T07:07:11;28.00;;;17.80;;
23129;SDS011;11734;51.046;13.778;2023-03-01T07:09:38;26.50;;;18.53;;
23129;SDS011;11734;51.046;13.778;2023-03-01T07:12:06;31.87;;;19.23;;
23129;SDS011;11734;51.046;13.778;2023-03-01T07:14:34;30.50;;;18.93;;
23129;SDS011;11734;51.046;13.778;2023-03-01T07:17:01;27.60;;;18.67;;
23129;SDS011;11734;51.046;13.778;2023-03-01T07:19:28;30.47;;;19.70;;
23129;SDS011;11734;51.046;13.778;2023-03-01T07:21:55;30.23;;;19.57;;
23129;SDS011;11734;51.046;13.778;2023-03-01T07:24:23;29.23;;;19.60;;
23129;SDS011;11734;51.046;13.778;2023-03-01T07:26:51;29.37;;;19.17;;
23129;SDS011;11734;51.046;13.778;2023-03-01T07:29:19;28.67;;;18.60;;
23129;SDS011;11734;51.046;13.778;2023-03-01T07:31:47;28.67;;;19.77;;
23129;SDS011;11734;51.046;13.778;2023-03-01T07:34:14;28.37;;;19.57;;
23129;SDS011;11734;51.046;13.778;2023-03-01T07:36:41;30.90;;;19.33;;
23129;SDS011;11734;51.046;13.778;2023-03-01T07:39:10;27.40;;;19.10;;
23129;SDS011;11734;51.046;13.778;2023-03-01T07:41:38;29.23;;;19.47;;
23129;SDS011;11734;51.046;13.778;2023-03-01T07:44:05;30.13;;;19.63;;
23129;SDS011;11734;51.046;13.778;2023-03-01T07:46:32;27.23;;;18.93;;
23129;SDS011;11734;51.046;13.778;2023-03-01T07:49:00;30.50;;;20.57;;
23129;SDS011;11734;51.046;13.778;2023-03-01T07:51:27;27.87;;;19.20;;
23129;SDS011;11734;51.046;13.778;2023-03-01T07:53:54;31.67;;;20.87;;
23129;SDS011;11734;51.046;13.778;2023-03-01T07:56:22;29.27;;;19.50;;
23129;SDS011;11734;51.046;13.778;2023-03-01T07:58:49;27.60;;;19.00;;
23129;SDS011;11734;51.046;13.778;2023-03-01T08:01:18;32.97;;;20.23;;
23129;SDS011;11734;51.046;13.778;2023-03-01T08:03:45;31.43;;;20.43;;
23129;SDS011;11734;51.046;13.778;2023-03-01T08:06:13;34.37;;;21.27;;
23129;SDS011;11734;51.046;13.778;2023-03-01T08:08:41;30.63;;;20.70;;
23129;SDS011;11734;51.046;13.778;2023-03-01T08:11:10;27.27;;;19.20;;
23129;SDS011;11734;51.046;13.778;2023-03-01T08:13:38;32.57;;;19.73;;
23129;SDS011;11734;51.046;13.778;2023-03-01T08:16:07;28.70;;;19.10;;
23129;SDS011;11734;51.046;13.778;2023-03-01T08:18:36;30.87;;;19.50;;
23129;SDS011;11734;51.046;13.778;2023-03-01T08:21:04;32.57;;;20.10;;
23129;SDS011;11734;51.046;13.778;2023-03-01T08:23:32;28.37;;;18.93;;
23129;SDS011;11734;51.046;13.778;2023-03-01T08:26:19;28.77;;;19.27;;
23129;SDS011;11734;51.046;13.778;2023-03-01T08:28:48;30.07;;;19.60;;
23129;SDS011;11734;51.046;13.778;2023-03-01T08:31:18;33.77;;;21.00;;
23129;SDS011;11734;51.046;13.778;2023-03-01T08:33:45;29.50;;;20.00;;
23129;SDS011;11734;51.046;13.778;2023-03-01T08:36:22;27.20;;;19.30;;
23129;SDS011;11734;51.046;13.778;2023-03-01T08:38:54;27.87;;;18.97;;
23129;SDS011;11734;51.046;13.778;2023-03-01T08:41:21;28.00;;;18.73;;
23129;SDS011;11734;51.046;13.778;2023-03-01T08:43:48;28.57;;;20.23;;
23129;SDS011;11734;51.046;13.778;2023-03-01T08:46:16;31.17;;;19.70;;
23129;SDS011;11734;51.046;13.778;2023-03-01T08:48:43;30.00;;;19.50;;
23129;SDS011;11734;51.046;13.778;2023-03-01T08:51:11;30.77;;;20.00;;
23129;SDS011;11734;51.046;13.778;2023-03-01T08:53:45;28.90;;;19.13;;
23129;SDS011;11734;51.046;13.778;2023-03-01T08:56:12;30.87;;;20.40;;
23129;SDS011;11734;51.046;13.778;2023-03-01T08:58:43;27.73;;;19.40;;
23129;SDS011;11734;51.046;13.778;2023-03-01T09:01:12;29.37;;;19.87;;
23129;SDS011;11734;51.046;13.778;2023-03-01T09:03:44;29.30;;;18.97;;
23129;SDS011;11734;51.046;13.778;2023-03-01T09:06:12;29.80;;;20.10;;
23129;SDS011;11734;51.046;13.778;2023-03-01T09:08:44;30.37;;;19.43;;
23129;SDS011;11734;51.046;13.778;2023-03-01T09:11:14;28.20;;;19.83;;
23129;SDS011;11734;51.046;13.778;2023-03-01T09:13:43;30.60;;;20.30;;
23129;SDS011;11734;51.046;13.778;2023-03-01T09:16:12;29.57;;;20.17;;
23129;SDS011;11734;51.046;13.778;2023-03-01T09:18:40;29.67;;;19.40;;
23129;SDS011;11734;51.046;13.778;2023-03-01T09:21:09;29.10;;;19.07;;
23129;SDS011;11734;51.046;13.778;2023-03-01T09:23:37;29.33;;;19.10;;
23129;SDS011;11734;51.046;13.778;2023-03-01T09:26:06;28.20;;;18.97;;
23129;SDS011;11734;51.046;13.778;2023-03-01T09:28:35;27.83;;;19.70;;
23129;SDS011;11734;51.046;13.778;2023-03-01T09:31:02;26.20;;;18.53;;
23129;SDS011;11734;51.046;13.778;2023-03-01T09:33:30;27.50;;;19.50;;
23129;SDS011;11734;51.046;13.778;2023-03-01T09:35:59;26.20;;;18.57;;
23129;SDS011;11734;51.046;13.778;2023-03-01T09:38:27;30.10;;;19.53;;
23129;SDS011;11734;51.046;13.778;2023-03-01T09:40:54;28.20;;;18.73;;
23129;SDS011;11734;51.046;13.778;2023-03-01T09:45:53;25.70;;;18.17;;
23129;SDS011;11734;51.046;13.778;2023-03-01T09:48:21;26.50;;;18.23;;
23129;SDS011;11734;51.046;13.778;2023-03-01T09:50:49;26.00;;;17.90;;
23129;SDS011;11734;51.046;13.778;2023-03-01T09:53:21;24.53;;;18.50;;
23129;SDS011;11734;51.046;13.778;2023-03-01T09:55:59;24.07;;;16.97;;
23129;SDS011;11734;51.046;13.778;2023-03-01T10:00:59;24.17;;;17.93;;
23129;SDS011;11734;51.046;13.778;2023-03-01T10:03:34;23.37;;;16.53;;
23129;SDS011;11734;51.046;13.778;2023-03-01T10:08:48;22.43;;;16.57;;
23129;SDS011;11734;51.046;13.778;2023-03-01T10:11:22;26.53;;;18.33;;
23129;SDS011;11734;51.046;13.778;2023-03-01T10:16:25;24.50;;;17.80;;
23129;SDS011;11734;51.046;13.778;2023-03-01T10:19:01;22.73;;;17.00;;
23129;SDS011;11734;51.046;13.778;2023-03-01T10:21:29;24.30;;;17.17;;
23129;SDS011;11734;51.046;13.778;2023-03-01T10:24:01;23.23;;;17.03;;
23129;SDS011;11734;51.046;13.778;2023-03-01T10:29:10;21.37;;;17.10;;
23129;SDS011;11734;51.046;13.778;2023-03-01T10:31:46;24.00;;;17.43;;
23129;SDS011;11734;51.046;13.778;2023-03-01T10:34:15;21.73;;;16.73;;
23129;SDS011;11734;51.046;13.778;2023-03-01T10:36:44;20.47;;;16.13;;
23129;SDS011;11734;51.046;13.778;2023-03-01T10:39:13;21.60;;;16.10;;
23129;SDS011;11734;51.046;13.778;2023-03-01T10:47:17;21.47;;;16.63;;
23129;SDS011;11734;51.046;13.778;2023-03-01T10:52:21;19.60;;;14.33;;
23129;SDS011;11734;51.046;13.778;2023-03-01T10:54:55;22.37;;;15.77;;
23129;SDS011;11734;51.046;13.778;2023-03-01T10:57:27;21.67;;;16.10;;
23129;SDS011;11734;51.046;13.778;2023-03-01T11:00:15;19.83;;;15.60;;
23129;SDS011;11734;51.046;13.778;2023-03-01T11:03:02;19.93;;;14.67;;
23129;SDS011;11734;51.046;13.778;2023-03-01T11:05:30;20.63;;;15.17;;
23129;SDS011;11734;51.046;13.778;2023-03-01T11:08:01;17.87;;;13.17;;
23129;SDS011;11734;51.046;13.778;2023-03-01T11:10:35;18.87;;;13.67;;
23129;SDS011;11734;51.046;13.778;2023-03-01T11:13:16;19.20;;;14.40;;
23129;SDS011;11734;51.046;13.778;2023-03-01T11:15:58;18.87;;;13.67;;
23129;SDS011;11734;51.046;13.778;2023-03-01T11:18:25;20.43;;;14.60;;
23129;SDS011;11734;51.046;13.778;2023-03-01T11:21:11;19.30;;;14.70;;
23129;SDS011;11734;51.046;13.778;2023-03-01T11:23:38;19.07;;;13.87;;
23129;SDS011;11734;51.046;13.778;2023-03-01T11:26:07;18.03;;;12.80;;
23129;SDS011;11734;51.046;13.778;2023-03-01T11:28:38;19.10;;;13.00;;
23129;SDS011;11734;51.046;13.778;2023-03-01T11:31:07;19.13;;;13.00;;
23129;SDS011;11734;51.046;13.778;2023-03-01T11:33:53;17.53;;;13.70;;
23129;SDS011;11734;51.046;13.778;2023-03-01T11:37:10;17.40;;;12.40;;
23129;SDS011;11734;51.046;13.778;2023-03-01T11:39:17;16.27;;;12.47;;
23129;SDS011;11734;51.046;13.778;2023-03-01T11:41:48;15.80;;;10.87;;
23129;SDS011;11734;51.046;13.778;2023-03-01T11:44:20;16.13;;;12.07;;
23129;SDS011;11734;51.046;13.778;2023-03-01T11:57:01;13.73;;;10.70;;
23129;SDS011;11734;51.046;13.778;2023-03-01T12:02:27;14.17;;;10.27;;
23129;SDS011;11734;51.046;13.778;2023-03-01T12:05:06;15.47;;;10.90;;
23129;SDS011;11734;51.046;13.778;2023-03-01T12:19:26;16.13;;;11.63;;
23129;SDS011;11734;51.046;13.778;2023-03-01T12:32:43;16.20;;;12.17;;
23129;SDS011;11734;51.046;13.778;2023-03-01T12:37:45;19.43;;;13.93;;
23129;SDS011;11734;51.046;13.778;2023-03-01T12:51:26;24.63;;;14.87;;
23129;SDS011;11734;51.046;13.778;2023-03-01T12:53:55;21.00;;;14.80;;
23129;SDS011;11734;51.046;13.778;2023-03-01T12:56:31;20.50;;;13.27;;
23129;SDS011;11734;51.046;13.778;2023-03-01T12:59:02;19.87;;;14.20;;
23129;SDS011;11734;51.046;13.778;2023-03-01T13:12:41;24.10;;;15.50;;
23129;SDS011;11734;51.046;13.778;2023-03-01T13:17:53;21.07;;;14.33;;
23129;SDS011;11734;51.046;13.778;2023-03-01T13:20:32;21.93;;;13.80;;
23129;SDS011;11734;51.046;13.778;2023-03-01T13:23:07;21.87;;;14.50;;
23129;SDS011;11734;51.046;13.778;2023-03-01T13:31:03;18.77;;;12.47;;
23129;SDS011;11734;51.046;13.778;2023-03-01T13:36:00;20.53;;;13.57;;
23129;SDS011;11734;51.046;13.778;2023-03-01T13:38:47;23.93;;;13.10;;
23129;SDS011;11734;51.046;13.778;2023-03-01T13:41:16;22.27;;;15.73;;
23129;SDS011;11734;51.046;13.778;2023-03-01T13:43:44;22.90;;;14.63;;
23129;SDS011;11734;51.046;13.778;2023-03-01T13:46:17;21.83;;;15.20;;
23129;SDS011;11734;51.046;13.778;2023-03-01T13:48:50;20.90;;;12.83;;
23129;SDS011;11734;51.046;13.778;2023-03-01T13:51:26;21.20;;;12.33;;
23129;SDS011;11734;51.046;13.778;2023-03-01T13:53:54;22.37;;;13.67;;
23129;SDS011;11734;51.046;13.778;2023-03-01T13:56:27;21.50;;;14.00;;
23129;SDS011;11734;51.046;13.778;2023-03-01T13:59:02;19.40;;;12.30;;
23129;SDS011;11734;51.046;13.778;2023-03-01T14:01:32;20.10;;;13.07;;
23129;SDS011;11734;51.046;13.778;2023-03-01T14:04:01;22.80;;;14.30;;
23129;SDS011;11734;51.046;13.778;2023-03-01T14:06:31;23.23;;;14.73;;
23129;SDS011;11734;51.046;13.778;2023-03-01T14:09:04;20.50;;;14.23;;
23129;SDS011;11734;51.046;13.778;2023-03-01T14:19:19;20.67;;;14.57;;
23129;SDS011;11734;51.046;13.778;2023-03-01T14:22:44;20.53;;;13.67;;
23129;SDS011;11734;51.046;13.778;2023-03-01T14:24:46;18.00;;;11.70;;
23129;SDS011;11734;51.046;13.778;2023-03-01T14:27:15;21.13;;;13.87;;
23129;SDS011;11734;51.046;13.778;2023-03-01T14:29:43;22.70;;;14.73;;
23129;SDS011;11734;51.046;13.778;2023-03-01T14:32:21;20.10;;;13.33;;
23129;SDS011;11734;51.046;13.778;2023-03-01T14:34:50;21.57;;;12.63;;
23129;SDS011;11734;51.046;13.778;2023-03-01T14:37:18;21.20;;;12.57;;
23129;SDS011;11734;51.046;13.778;2023-03-01T14:39:46;21.57;;;14.27;;
23129;SDS011;11734;51.046;13.778;2023-03-01T14:42:14;18.90;;;13.27;;
23129;SDS011;11734;51.046;13.778;2023-03-01T14:44:45;18.03;;;12.60;;
23129;SDS011;11734;51.046;13.778;2023-03-01T14:47:47;21.07;;;13.53;;
23129;SDS011;11734;51.046;13.778;2023-03-01T14:50:15;21.70;;;14.23;;
23129;SDS011;11734;51.046;13.778;2023-03-01T14:52:45;20.13;;;13.73;;
23129;SDS011;11734;51.046;13.778;2023-03-01T14:55:15;18.80;;;12.53;;
23129;SDS011;11734;51.046;13.778;2023-03-01T14:57:46;19.20;;;13.40;;
23129;SDS011;11734;51.046;13.778;2023-03-01T15:00:32;21.47;;;13.53;;
23129;SDS011;11734;51.046;13.778;2023-03-01T15:03:46;20.37;;;12.93;;
23129;SDS011;11734;51.046;13.778;2023-03-01T15:05:48;19.03;;;13.13;;
23129;SDS011;11734;51.046;13.778;2023-03-01T15:08:20;18.33;;;12.60;;
23129;SDS011;11734;51.046;13.778;2023-03-01T15:10:58;18.63;;;12.80;;
23129;SDS011;11734;51.046;13.778;2023-03-01T15:13:28;19.17;;;12.67;;
23129;SDS011;11734;51.046;13.778;2023-03-01T15:16:03;18.07;;;12.40;;
23129;SDS011;11734;51.046;13.778;2023-03-01T15:18:32;17.57;;;12.23;;
23129;SDS011;11734;51.046;13.778;2023-03-01T15:21:33;16.50;;;11.53;;
23129;SDS011;11734;51.046;13.778;2023-03-01T15:23:56;18.80;;;12.17;;
23129;SDS011;11734;51.046;13.778;2023-03-01T15:26:28;17.50;;;11.80;;
23129;SDS011;11734;51.046;13.778;2023-03-01T15:28:57;18.50;;;11.87;;
23129;SDS011;11734;51.046;13.778;2023-03-01T15:31:37;17.43;;;12.90;;
23129;SDS011;11734;51.046;13.778;2023-03-01T15:34:09;17.00;;;12.53;;
23129;SDS011;11734;51.046;13.778;2023-03-01T15:36:44;16.83;;;12.10;;
23129;SDS011;11734;51.046;13.778;2023-03-01T15:41:54;18.87;;;11.67;;
23129;SDS011;11734;51.046;13.778;2023-03-01T15:44:28;18.33;;;12.37;;
23129;SDS011;11734;51.046;13.778;2023-03-01T15:47:22;17.80;;;12.20;;
23129;SDS011;11734;51.046;13.778;2023-03-01T15:49:50;18.57;;;12.63;;
23129;SDS011;11734;51.046;13.778;2023-03-01T15:52:55;16.57;;;11.77;;
23129;SDS011;11734;51.046;13.778;2023-03-01T15:55:16;17.80;;;12.27;;
23129;SDS011;11734;51.046;13.778;2023-03-01T15:57:44;16.37;;;11.57;;
23129;SDS011;11734;51.046;13.778;2023-03-01T16:00:12;17.00;;;12.50;;
23129;SDS011;11734;51.046;13.778;2023-03-01T16:02:40;17.00;;;12.20;;
23129;SDS011;11734;51.046;13.778;2023-03-01T16:05:22;18.17;;;12.13;;
23129;SDS011;11734;51.046;13.778;2023-03-01T16:07:50;18.00;;;12.17;;
23129;SDS011;11734;51.046;13.778;2023-03-01T16:10:18;15.10;;;11.17;;
23129;SDS011;11734;51.046;13.778;2023-03-01T16:12:45;19.20;;;11.73;;
23129;SDS011;11734;51.046;13.778;2023-03-01T16:15:24;17.40;;;11.70;;
23129;SDS011;11734;51.046;13.778;2023-03-01T16:17:52;16.60;;;11.93;;
23129;SDS011;11734;51.046;13.778;2023-03-01T16:20:22;16.30;;;12.10;;